sensor_id;sensor_type;location;lat;lon;timestamp;P1;durP1;ratioP1;P2;durP2;ratioP2
60213;SDS011;46080;46.904;19.688;2022-09-21T00:02:07;11.73;;;6.93;;
60213;SDS011;46080;46.904;19.688;2022-09-21T00:04:33;10.10;;;6.28;;
60213;SDS011;46080;46.904;19.688;2022-09-21T00:06:59;11.07;;;6.03;;
60213;SDS011;46080;46.904;19.688;2022-09-21T00:09:25;8.55;;;5.55;;
60213;SDS011;46080;46.904;19.688;2022-09-21T00:11:50;9.82;;;6.15;;
60213;SDS011;46080;46.904;19.688;2022-09-21T00:14:18;12.43;;;6.70;;
60213;SDS011;46080;46.904;19.688;2022-09-21T00:16:44;9.52;;;5.63;;
60213;SDS011;46080;46.904;19.688;2022-09-21T00:19:10;12.50;;;5.68;;
60213;SDS011;46080;46.904;19.688;2022-09-21T00:21:36;10.35;;;6.40;;
60213;SDS011;46080;46.904;19.688;2022-09-21T00:24:02;11.55;;;6.65;;
60213;SDS011;46080;46.904;19.688;2022-09-21T00:26:29;10.38;;;7.47;;
60213;SDS011;46080;46.904;19.688;2022-09-21T00:28:57;8.57;;;6.15;;
60213;SDS011;46080;46.904;19.688;2022-09-21T00:31:24;10.48;;;6.25;;
60213;SDS011;46080;46.904;19.688;2022-09-21T00:33:51;10.75;;;6.15;;
60213;SDS011;46080;46.904;19.688;2022-09-21T00:36:18;13.68;;;7.40;;
60213;SDS011;46080;46.904;19.688;2022-09-21T00:38:52;8.75;;;6.13;;
60213;SDS011;46080;46.904;19.688;2022-09-21T00:41:23;8.82;;;6.50;;
60213;SDS011;46080;46.904;19.688;2022-09-21T00:46:40;10.15;;;6.65;;
60213;SDS011;46080;46.904;19.688;2022-09-21T00:49:07;11.18;;;7.30;;
60213;SDS011;46080;46.904;19.688;2022-09-21T00:51:34;10.57;;;6.68;;
60213;SDS011;46080;46.904;19.688;2022-09-21T00:54:02;11.75;;;7.20;;
60213;SDS011;46080;46.904;19.688;2022-09-21T00:56:31;8.93;;;6.07;;
60213;SDS011;46080;46.904;19.688;2022-09-21T00:58:58;8.70;;;6.43;;
60213;SDS011;46080;46.904;19.688;2022-09-21T01:01:24;14.20;;;7.72;;
60213;SDS011;46080;46.904;19.688;2022-09-21T01:03:50;10.85;;;6.88;;
60213;SDS011;46080;46.904;19.688;2022-09-21T01:06:18;11.73;;;6.00;;
60213;SDS011;46080;46.904;19.688;2022-09-21T01:08:45;10.70;;;6.18;;
60213;SDS011;46080;46.904;19.688;2022-09-21T01:11:32;16.00;;;6.95;;
60213;SDS011;46080;46.904;19.688;2022-09-21T01:17:10;11.82;;;6.85;;
60213;SDS011;46080;46.904;19.688;2022-09-21T01:20:03;12.93;;;6.70;;
60213;SDS011;46080;46.904;19.688;2022-09-21T01:25:47;10.80;;;6.57;;
60213;SDS011;46080;46.904;19.688;2022-09-21T01:28:30;10.10;;;6.28;;
60213;SDS011;46080;46.904;19.688;2022-09-21T01:31:18;11.45;;;6.93;;
60213;SDS011;46080;46.904;19.688;2022-09-21T01:33:50;10.23;;;6.47;;
60213;SDS011;46080;46.904;19.688;2022-09-21T01:36:21;9.38;;;6.35;;
60213;SDS011;46080;46.904;19.688;2022-09-21T01:38:51;11.43;;;6.22;;
60213;SDS011;46080;46.904;19.688;2022-09-21T01:41:21;12.80;;;7.20;;
60213;SDS011;46080;46.904;19.688;2022-09-21T01:43:52;12.07;;;7.35;;
60213;SDS011;46080;46.904;19.688;2022-09-21T01:46:24;13.47;;;7.83;;
60213;SDS011;46080;46.904;19.688;2022-09-21T01:48:56;12.45;;;7.10;;
60213;SDS011;46080;46.904;19.688;2022-09-21T01:51:28;13.00;;;7.13;;
60213;SDS011;46080;46.904;19.688;2022-09-21T01:53:59;10.85;;;6.53;;
60213;SDS011;46080;46.904;19.688;2022-09-21T01:56:43;11.68;;;6.70;;
60213;SDS011;46080;46.904;19.688;2022-09-21T01:59:24;11.35;;;6.60;;
60213;SDS011;46080;46.904;19.688;2022-09-21T02:01:58;9.38;;;7.05;;
60213;SDS011;46080;46.904;19.688;2022-09-21T02:04:27;11.25;;;6.88;;
60213;SDS011;46080;46.904;19.688;2022-09-21T02:06:53;10.95;;;5.93;;
60213;SDS011;46080;46.904;19.688;2022-09-21T02:09:19;14.35;;;7.05;;
60213;SDS011;46080;46.904;19.688;2022-09-21T02:11:45;14.10;;;6.38;;
60213;SDS011;46080;46.904;19.688;2022-09-21T02:14:19;11.95;;;6.00;;
60213;SDS011;46080;46.904;19.688;2022-09-21T02:20:08;10.77;;;6.47;;
60213;SDS011;46080;46.904;19.688;2022-09-21T02:25:51;10.20;;;5.97;;
60213;SDS011;46080;46.904;19.688;2022-09-21T02:28:44;9.32;;;5.97;;
60213;SDS011;46080;46.904;19.688;2022-09-21T02:34:17;8.85;;;6.45;;
60213;SDS011;46080;46.904;19.688;2022-09-21T02:36:51;12.43;;;7.07;;
60213;SDS011;46080;46.904;19.688;2022-09-21T02:39:34;11.32;;;7.40;;
60213;SDS011;46080;46.904;19.688;2022-09-21T02:42:35;11.63;;;6.03;;
60213;SDS011;46080;46.904;19.688;2022-09-21T02:47:35;9.95;;;6.05;;
60213;SDS011;46080;46.904;19.688;2022-09-21T02:50:11;11.75;;;6.88;;
60213;SDS011;46080;46.904;19.688;2022-09-21T02:52:41;12.45;;;7.32;;
60213;SDS011;46080;46.904;19.688;2022-09-21T02:55:08;10.65;;;6.70;;
60213;SDS011;46080;46.904;19.688;2022-09-21T02:57:36;11.68;;;6.97;;
60213;SDS011;46080;46.904;19.688;2022-09-21T03:00:03;9.57;;;7.03;;
60213;SDS011;46080;46.904;19.688;2022-09-21T03:02:37;9.77;;;6.40;;
60213;SDS011;46080;46.904;19.688;2022-09-21T03:05:04;9.65;;;6.25;;
60213;SDS011;46080;46.904;19.688;2022-09-21T03:07:31;12.13;;;6.28;;
60213;SDS011;46080;46.904;19.688;2022-09-21T03:09:57;10.45;;;6.68;;
60213;SDS011;46080;46.904;19.688;2022-09-21T03:12:22;12.18;;;6.95;;
60213;SDS011;46080;46.904;19.688;2022-09-21T03:14:48;9.85;;;6.18;;
60213;SDS011;46080;46.904;19.688;2022-09-21T03:17:15;13.52;;;6.75;;
60213;SDS011;46080;46.904;19.688;2022-09-21T03:19:41;12.00;;;6.55;;
60213;SDS011;46080;46.904;19.688;2022-09-21T03:22:07;12.85;;;6.63;;
60213;SDS011;46080;46.904;19.688;2022-09-21T03:24:33;12.35;;;6.60;;
60213;SDS011;46080;46.904;19.688;2022-09-21T03:27:18;11.00;;;6.68;;
60213;SDS011;46080;46.904;19.688;2022-09-21T03:29:45;12.27;;;6.45;;
60213;SDS011;46080;46.904;19.688;2022-09-21T03:32:11;10.10;;;6.80;;
60213;SDS011;46080;46.904;19.688;2022-09-21T03:34:38;14.85;;;6.75;;
60213;SDS011;46080;46.904;19.688;2022-09-21T03:37:05;13.18;;;6.85;;
60213;SDS011;46080;46.904;19.688;2022-09-21T03:39:33;10.82;;;6.65;;
60213;SDS011;46080;46.904;19.688;2022-09-21T03:41:59;11.90;;;7.65;;
60213;SDS011;46080;46.904;19.688;2022-09-21T03:44:25;16.63;;;6.65;;
60213;SDS011;46080;46.904;19.688;2022-09-21T03:46:51;11.25;;;7.05;;
60213;SDS011;46080;46.904;19.688;2022-09-21T03:49:17;10.55;;;6.45;;
60213;SDS011;46080;46.904;19.688;2022-09-21T03:51:43;10.07;;;6.22;;
60213;SDS011;46080;46.904;19.688;2022-09-21T03:54:09;10.38;;;6.55;;
60213;SDS011;46080;46.904;19.688;2022-09-21T03:56:35;12.40;;;7.70;;
60213;SDS011;46080;46.904;19.688;2022-09-21T03:59:02;15.25;;;7.05;;
60213;SDS011;46080;46.904;19.688;2022-09-21T04:01:28;9.60;;;7.05;;
60213;SDS011;46080;46.904;19.688;2022-09-21T04:03:54;12.18;;;7.13;;
60213;SDS011;46080;46.904;19.688;2022-09-21T04:06:20;8.82;;;6.15;;
60213;SDS011;46080;46.904;19.688;2022-09-21T04:08:45;10.68;;;6.35;;
60213;SDS011;46080;46.904;19.688;2022-09-21T04:11:15;12.63;;;7.45;;
60213;SDS011;46080;46.904;19.688;2022-09-21T04:13:42;10.57;;;6.30;;
60213;SDS011;46080;46.904;19.688;2022-09-21T04:16:09;12.73;;;6.38;;
60213;SDS011;46080;46.904;19.688;2022-09-21T04:18:35;14.52;;;6.90;;
60213;SDS011;46080;46.904;19.688;2022-09-21T04:21:05;9.57;;;6.65;;
60213;SDS011;46080;46.904;19.688;2022-09-21T04:23:31;13.60;;;7.32;;
60213;SDS011;46080;46.904;19.688;2022-09-21T04:25:56;11.40;;;6.80;;
60213;SDS011;46080;46.904;19.688;2022-09-21T04:28:23;11.68;;;6.68;;
60213;SDS011;46080;46.904;19.688;2022-09-21T04:30:52;10.82;;;6.28;;
60213;SDS011;46080;46.904;19.688;2022-09-21T04:33:19;12.43;;;6.40;;
60213;SDS011;46080;46.904;19.688;2022-09-21T04:35:44;14.07;;;6.38;;
60213;SDS011;46080;46.904;19.688;2022-09-21T04:38:10;16.10;;;8.55;;
60213;SDS011;46080;46.904;19.688;2022-09-21T04:40:37;16.10;;;8.30;;
60213;SDS011;46080;46.904;19.688;2022-09-21T04:43:03;10.52;;;7.18;;
60213;SDS011;46080;46.904;19.688;2022-09-21T04:45:29;11.90;;;6.93;;
60213;SDS011;46080;46.904;19.688;2022-09-21T04:47:55;15.23;;;8.30;;
60213;SDS011;46080;46.904;19.688;2022-09-21T04:50:20;13.80;;;5.93;;
60213;SDS011;46080;46.904;19.688;2022-09-21T04:52:46;13.27;;;6.88;;
60213;SDS011;46080;46.904;19.688;2022-09-21T04:55:12;16.95;;;7.72;;
60213;SDS011;46080;46.904;19.688;2022-09-21T04:57:38;13.10;;;6.55;;
60213;SDS011;46080;46.904;19.688;2022-09-21T05:00:05;12.65;;;6.80;;
60213;SDS011;46080;46.904;19.688;2022-09-21T05:02:31;14.05;;;7.13;;
60213;SDS011;46080;46.904;19.688;2022-09-21T05:04:57;17.42;;;7.55;;
60213;SDS011;46080;46.904;19.688;2022-09-21T05:07:22;12.60;;;6.85;;
60213;SDS011;46080;46.904;19.688;2022-09-21T05:09:48;11.82;;;6.85;;
60213;SDS011;46080;46.904;19.688;2022-09-21T05:12:32;13.65;;;8.82;;
60213;SDS011;46080;46.904;19.688;2022-09-21T05:14:59;13.65;;;6.88;;
60213;SDS011;46080;46.904;19.688;2022-09-21T05:17:25;13.98;;;6.88;;
60213;SDS011;46080;46.904;19.688;2022-09-21T05:19:51;13.55;;;8.70;;
60213;SDS011;46080;46.904;19.688;2022-09-21T05:22:18;12.07;;;7.10;;
60213;SDS011;46080;46.904;19.688;2022-09-21T05:24:44;15.18;;;7.78;;
60213;SDS011;46080;46.904;19.688;2022-09-21T05:27:10;14.70;;;7.75;;
60213;SDS011;46080;46.904;19.688;2022-09-21T05:29:37;16.92;;;7.97;;
60213;SDS011;46080;46.904;19.688;2022-09-21T05:37:11;21.58;;;9.05;;
60213;SDS011;46080;46.904;19.688;2022-09-21T05:39:48;15.73;;;7.38;;
60213;SDS011;46080;46.904;19.688;2022-09-21T05:42:14;12.30;;;7.10;;
60213;SDS011;46080;46.904;19.688;2022-09-21T05:44:40;15.70;;;7.93;;
60213;SDS011;46080;46.904;19.688;2022-09-21T05:56:07;14.52;;;8.05;;
60213;SDS011;46080;46.904;19.688;2022-09-21T05:58:55;17.02;;;7.20;;
60213;SDS011;46080;46.904;19.688;2022-09-21T06:04:22;13.13;;;7.00;;
60213;SDS011;46080;46.904;19.688;2022-09-21T06:06:48;10.32;;;6.68;;
60213;SDS011;46080;46.904;19.688;2022-09-21T06:09:14;11.00;;;6.50;;
60213;SDS011;46080;46.904;19.688;2022-09-21T06:11:40;10.43;;;6.45;;
60213;SDS011;46080;46.904;19.688;2022-09-21T06:14:08;11.20;;;5.65;;
60213;SDS011;46080;46.904;19.688;2022-09-21T06:16:38;12.27;;;6.13;;
60213;SDS011;46080;46.904;19.688;2022-09-21T06:19:04;11.15;;;6.25;;
60213;SDS011;46080;46.904;19.688;2022-09-21T06:21:30;9.85;;;6.28;;
60213;SDS011;46080;46.904;19.688;2022-09-21T06:23:57;13.38;;;6.85;;
60213;SDS011;46080;46.904;19.688;2022-09-21T06:26:23;12.27;;;6.80;;
60213;SDS011;46080;46.904;19.688;2022-09-21T06:28:49;11.13;;;7.32;;
60213;SDS011;46080;46.904;19.688;2022-09-21T06:31:14;11.65;;;7.38;;
60213;SDS011;46080;46.904;19.688;2022-09-21T06:33:40;12.10;;;6.60;;
60213;SDS011;46080;46.904;19.688;2022-09-21T06:36:06;12.23;;;8.23;;
60213;SDS011;46080;46.904;19.688;2022-09-21T06:38:32;15.25;;;7.78;;
60213;SDS011;46080;46.904;19.688;2022-09-21T06:41:00;12.90;;;6.65;;
60213;SDS011;46080;46.904;19.688;2022-09-21T06:43:27;12.00;;;6.65;;
60213;SDS011;46080;46.904;19.688;2022-09-21T06:45:53;8.82;;;6.38;;
60213;SDS011;46080;46.904;19.688;2022-09-21T06:48:20;11.85;;;7.03;;
60213;SDS011;46080;46.904;19.688;2022-09-21T06:50:46;14.32;;;7.47;;
60213;SDS011;46080;46.904;19.688;2022-09-21T06:53:12;12.48;;;6.93;;
60213;SDS011;46080;46.904;19.688;2022-09-21T06:55:39;15.60;;;8.00;;
60213;SDS011;46080;46.904;19.688;2022-09-21T06:58:04;14.00;;;7.68;;
60213;SDS011;46080;46.904;19.688;2022-09-21T07:00:31;11.23;;;7.28;;
60213;SDS011;46080;46.904;19.688;2022-09-21T07:02:57;12.57;;;7.25;;
60213;SDS011;46080;46.904;19.688;2022-09-21T07:05:23;16.50;;;7.00;;
60213;SDS011;46080;46.904;19.688;2022-09-21T07:07:49;13.45;;;6.93;;
60213;SDS011;46080;46.904;19.688;2022-09-21T07:10:15;13.10;;;6.30;;
60213;SDS011;46080;46.904;19.688;2022-09-21T07:12:42;9.45;;;6.07;;
60213;SDS011;46080;46.904;19.688;2022-09-21T07:15:08;7.70;;;6.07;;
60213;SDS011;46080;46.904;19.688;2022-09-21T07:17:35;13.85;;;6.65;;
60213;SDS011;46080;46.904;19.688;2022-09-21T07:20:03;8.60;;;6.22;;
60213;SDS011;46080;46.904;19.688;2022-09-21T07:22:31;12.32;;;6.20;;
60213;SDS011;46080;46.904;19.688;2022-09-21T07:24:57;9.25;;;5.97;;
60213;SDS011;46080;46.904;19.688;2022-09-21T07:27:27;8.20;;;5.65;;
60213;SDS011;46080;46.904;19.688;2022-09-21T07:29:54;16.77;;;6.03;;
60213;SDS011;46080;46.904;19.688;2022-09-21T07:32:20;8.13;;;6.10;;
60213;SDS011;46080;46.904;19.688;2022-09-21T07:34:46;6.93;;;5.32;;
60213;SDS011;46080;46.904;19.688;2022-09-21T07:37:12;11.40;;;5.53;;
60213;SDS011;46080;46.904;19.688;2022-09-21T07:39:38;8.20;;;5.68;;
60213;SDS011;46080;46.904;19.688;2022-09-21T07:42:05;10.70;;;6.35;;
60213;SDS011;46080;46.904;19.688;2022-09-21T07:44:31;11.15;;;7.03;;
60213;SDS011;46080;46.904;19.688;2022-09-21T07:46:58;14.10;;;7.82;;
60213;SDS011;46080;46.904;19.688;2022-09-21T07:49:24;11.98;;;7.30;;
60213;SDS011;46080;46.904;19.688;2022-09-21T07:51:50;11.65;;;6.97;;
60213;SDS011;46080;46.904;19.688;2022-09-21T07:54:15;8.27;;;5.50;;
60213;SDS011;46080;46.904;19.688;2022-09-21T07:56:41;8.45;;;6.03;;
60213;SDS011;46080;46.904;19.688;2022-09-21T07:59:27;8.30;;;5.10;;
60213;SDS011;46080;46.904;19.688;2022-09-21T08:01:54;9.27;;;6.15;;
60213;SDS011;46080;46.904;19.688;2022-09-21T08:04:19;9.48;;;6.65;;
60213;SDS011;46080;46.904;19.688;2022-09-21T08:06:45;7.63;;;6.13;;
60213;SDS011;46080;46.904;19.688;2022-09-21T08:09:11;8.73;;;5.78;;
60213;SDS011;46080;46.904;19.688;2022-09-21T08:11:36;9.63;;;6.60;;
60213;SDS011;46080;46.904;19.688;2022-09-21T08:14:02;13.38;;;5.80;;
60213;SDS011;46080;46.904;19.688;2022-09-21T08:16:29;8.48;;;6.18;;
60213;SDS011;46080;46.904;19.688;2022-09-21T08:18:56;9.82;;;6.10;;
60213;SDS011;46080;46.904;19.688;2022-09-21T08:21:21;10.85;;;5.43;;
60213;SDS011;46080;46.904;19.688;2022-09-21T08:23:48;9.38;;;5.45;;
60213;SDS011;46080;46.904;19.688;2022-09-21T08:26:14;7.57;;;4.85;;
60213;SDS011;46080;46.904;19.688;2022-09-21T08:28:44;10.30;;;6.45;;
60213;SDS011;46080;46.904;19.688;2022-09-21T08:31:14;11.05;;;5.97;;
60213;SDS011;46080;46.904;19.688;2022-09-21T08:33:41;10.23;;;6.85;;
60213;SDS011;46080;46.904;19.688;2022-09-21T08:36:07;8.55;;;5.60;;
60213;SDS011;46080;46.904;19.688;2022-09-21T08:38:35;9.85;;;5.45;;
60213;SDS011;46080;46.904;19.688;2022-09-21T08:41:10;7.18;;;5.03;;
60213;SDS011;46080;46.904;19.688;2022-09-21T08:43:39;7.15;;;4.47;;
60213;SDS011;46080;46.904;19.688;2022-09-21T08:46:09;8.88;;;4.22;;
60213;SDS011;46080;46.904;19.688;2022-09-21T08:48:44;8.73;;;5.30;;
60213;SDS011;46080;46.904;19.688;2022-09-21T08:51:22;7.03;;;4.82;;
60213;SDS011;46080;46.904;19.688;2022-09-21T08:53:52;9.27;;;5.97;;
60213;SDS011;46080;46.904;19.688;2022-09-21T08:56:21;9.20;;;5.50;;
60213;SDS011;46080;46.904;19.688;2022-09-21T08:58:48;8.35;;;5.03;;
60213;SDS011;46080;46.904;19.688;2022-09-21T09:09:32;7.20;;;5.43;;
60213;SDS011;46080;46.904;19.688;2022-09-21T09:12:41;7.00;;;4.80;;
60213;SDS011;46080;46.904;19.688;2022-09-21T09:15:31;7.70;;;4.70;;
60213;SDS011;46080;46.904;19.688;2022-09-21T09:20:55;6.00;;;4.95;;
60213;SDS011;46080;46.904;19.688;2022-09-21T09:26:10;6.63;;;4.95;;
60213;SDS011;46080;46.904;19.688;2022-09-21T09:31:23;8.40;;;5.20;;
60213;SDS011;46080;46.904;19.688;2022-09-21T09:36:46;6.93;;;3.75;;
60213;SDS011;46080;46.904;19.688;2022-09-21T09:39:16;4.10;;;3.67;;
60213;SDS011;46080;46.904;19.688;2022-09-21T09:50:05;3.47;;;3.00;;
60213;SDS011;46080;46.904;19.688;2022-09-21T09:52:39;4.93;;;3.97;;
60213;SDS011;46080;46.904;19.688;2022-09-21T09:55:10;5.40;;;3.85;;
60213;SDS011;46080;46.904;19.688;2022-09-21T09:57:44;5.47;;;3.15;;
60213;SDS011;46080;46.904;19.688;2022-09-21T10:00:15;5.97;;;3.13;;
60213;SDS011;46080;46.904;19.688;2022-09-21T10:02:47;4.53;;;3.25;;
60213;SDS011;46080;46.904;19.688;2022-09-21T10:05:18;7.78;;;3.13;;
60213;SDS011;46080;46.904;19.688;2022-09-21T10:07:48;3.92;;;3.15;;
60213;SDS011;46080;46.904;19.688;2022-09-21T10:10:22;3.92;;;2.75;;
60213;SDS011;46080;46.904;19.688;2022-09-21T10:15:47;5.70;;;3.28;;
60213;SDS011;46080;46.904;19.688;2022-09-21T10:18:17;7.18;;;3.47;;
60213;SDS011;46080;46.904;19.688;2022-09-21T10:21:00;4.05;;;2.70;;
60213;SDS011;46080;46.904;19.688;2022-09-21T10:23:30;3.53;;;2.67;;
60213;SDS011;46080;46.904;19.688;2022-09-21T10:26:01;3.85;;;2.92;;
60213;SDS011;46080;46.904;19.688;2022-09-21T10:28:28;5.55;;;2.97;;
60213;SDS011;46080;46.904;19.688;2022-09-21T10:31:11;4.65;;;3.35;;
60213;SDS011;46080;46.904;19.688;2022-09-21T10:33:53;5.85;;;4.25;;
60213;SDS011;46080;46.904;19.688;2022-09-21T10:36:36;4.80;;;3.15;;
60213;SDS011;46080;46.904;19.688;2022-09-21T10:44:22;3.10;;;2.50;;
60213;SDS011;46080;46.904;19.688;2022-09-21T10:46:50;2.60;;;2.40;;
60213;SDS011;46080;46.904;19.688;2022-09-21T10:49:24;5.18;;;2.70;;
60213;SDS011;46080;46.904;19.688;2022-09-21T10:51:53;2.70;;;2.35;;
60213;SDS011;46080;46.904;19.688;2022-09-21T10:54:27;3.83;;;2.55;;
60213;SDS011;46080;46.904;19.688;2022-09-21T10:56:59;6.13;;;3.80;;
60213;SDS011;46080;46.904;19.688;2022-09-21T10:59:33;6.40;;;3.00;;
60213;SDS011;46080;46.904;19.688;2022-09-21T11:02:01;4.25;;;3.33;;
60213;SDS011;46080;46.904;19.688;2022-09-21T11:04:48;4.97;;;3.42;;
60213;SDS011;46080;46.904;19.688;2022-09-21T11:07:19;4.80;;;4.30;;
60213;SDS011;46080;46.904;19.688;2022-09-21T11:15:50;4.40;;;2.88;;
60213;SDS011;46080;46.904;19.688;2022-09-21T11:21:21;3.67;;;2.80;;
60213;SDS011;46080;46.904;19.688;2022-09-21T11:26:56;4.60;;;2.60;;
60213;SDS011;46080;46.904;19.688;2022-09-21T11:38:04;5.43;;;2.72;;
60213;SDS011;46080;46.904;19.688;2022-09-21T11:49:17;5.75;;;3.80;;
60213;SDS011;46080;46.904;19.688;2022-09-21T11:52:28;11.27;;;4.00;;
60213;SDS011;46080;46.904;19.688;2022-09-21T11:58:08;4.28;;;3.25;;
60213;SDS011;46080;46.904;19.688;2022-09-21T12:01:07;3.25;;;2.72;;
60213;SDS011;46080;46.904;19.688;2022-09-21T12:17:08;3.08;;;2.50;;
60213;SDS011;46080;46.904;19.688;2022-09-21T12:27:32;3.70;;;2.72;;
60213;SDS011;46080;46.904;19.688;2022-09-21T12:30:02;3.60;;;2.88;;
60213;SDS011;46080;46.904;19.688;2022-09-21T12:32:38;5.35;;;3.17;;
60213;SDS011;46080;46.904;19.688;2022-09-21T12:35:16;2.95;;;2.63;;
60213;SDS011;46080;46.904;19.688;2022-09-21T12:43:33;6.10;;;3.17;;
60213;SDS011;46080;46.904;19.688;2022-09-21T12:46:02;5.15;;;3.22;;
60213;SDS011;46080;46.904;19.688;2022-09-21T12:48:35;5.82;;;3.53;;
60213;SDS011;46080;46.904;19.688;2022-09-21T12:53:50;4.53;;;3.13;;
60213;SDS011;46080;46.904;19.688;2022-09-21T12:57:06;3.95;;;3.25;;
60213;SDS011;46080;46.904;19.688;2022-09-21T12:59:49;3.72;;;3.20;;
60213;SDS011;46080;46.904;19.688;2022-09-21T13:02:40;7.03;;;4.03;;
60213;SDS011;46080;46.904;19.688;2022-09-21T13:08:24;4.18;;;3.03;;
60213;SDS011;46080;46.904;19.688;2022-09-21T13:11:01;3.97;;;3.15;;
60213;SDS011;46080;46.904;19.688;2022-09-21T13:15:58;5.28;;;3.20;;
60213;SDS011;46080;46.904;19.688;2022-09-21T13:20:53;6.95;;;4.00;;
60213;SDS011;46080;46.904;19.688;2022-09-21T13:23:25;7.15;;;3.75;;
60213;SDS011;46080;46.904;19.688;2022-09-21T13:25:59;4.72;;;4.05;;
60213;SDS011;46080;46.904;19.688;2022-09-21T13:28:40;4.10;;;3.35;;
60213;SDS011;46080;46.904;19.688;2022-09-21T13:33:38;5.05;;;4.45;;
60213;SDS011;46080;46.904;19.688;2022-09-21T13:39:11;9.68;;;5.22;;
60213;SDS011;46080;46.904;19.688;2022-09-21T13:41:42;11.52;;;3.92;;
60213;SDS011;46080;46.904;19.688;2022-09-21T13:44:51;6.32;;;3.58;;
60213;SDS011;46080;46.904;19.688;2022-09-21T13:46:58;6.40;;;4.45;;
60213;SDS011;46080;46.904;19.688;2022-09-21T13:49:27;5.03;;;3.83;;
60213;SDS011;46080;46.904;19.688;2022-09-21T14:00:04;4.80;;;3.40;;
60213;SDS011;46080;46.904;19.688;2022-09-21T14:02:43;7.40;;;4.05;;
60213;SDS011;46080;46.904;19.688;2022-09-21T14:05:38;8.45;;;4.70;;
60213;SDS011;46080;46.904;19.688;2022-09-21T14:10:39;5.33;;;4.77;;
60213;SDS011;46080;46.904;19.688;2022-09-21T14:18:52;6.82;;;4.28;;
60213;SDS011;46080;46.904;19.688;2022-09-21T14:21:18;5.38;;;4.15;;
60213;SDS011;46080;46.904;19.688;2022-09-21T14:26:45;4.32;;;3.85;;
60213;SDS011;46080;46.904;19.688;2022-09-21T14:31:45;7.60;;;3.80;;
60213;SDS011;46080;46.904;19.688;2022-09-21T14:34:14;4.60;;;3.83;;
60213;SDS011;46080;46.904;19.688;2022-09-21T14:36:48;4.65;;;3.90;;
60213;SDS011;46080;46.904;19.688;2022-09-21T14:39:16;5.53;;;4.30;;
60213;SDS011;46080;46.904;19.688;2022-09-21T14:41:47;5.40;;;4.03;;
60213;SDS011;46080;46.904;19.688;2022-09-21T14:44:21;4.47;;;3.50;;
60213;SDS011;46080;46.904;19.688;2022-09-21T15:03:58;6.40;;;2.92;;
60213;SDS011;46080;46.904;19.688;2022-09-21T15:17:56;5.05;;;3.45;;
60213;SDS011;46080;46.904;19.688;2022-09-21T15:20:25;5.05;;;3.60;;
60213;SDS011;46080;46.904;19.688;2022-09-21T15:22:55;4.40;;;3.63;;
60213;SDS011;46080;46.904;19.688;2022-09-21T15:25:52;4.15;;;2.90;;
60213;SDS011;46080;46.904;19.688;2022-09-21T15:28:32;5.65;;;3.40;;
60213;SDS011;46080;46.904;19.688;2022-09-21T15:31:22;5.75;;;2.72;;
60213;SDS011;46080;46.904;19.688;2022-09-21T15:33:50;3.95;;;2.13;;
60213;SDS011;46080;46.904;19.688;2022-09-21T15:36:21;2.85;;;1.95;;
60213;SDS011;46080;46.904;19.688;2022-09-21T15:38:51;2.25;;;2.05;;
60213;SDS011;46080;46.904;19.688;2022-09-21T15:43:58;2.25;;;1.75;;
60213;SDS011;46080;46.904;19.688;2022-09-21T15:46:40;3.05;;;1.98;;
60213;SDS011;46080;46.904;19.688;2022-09-21T15:49:10;2.38;;;2.17;;
60213;SDS011;46080;46.904;19.688;2022-09-21T15:51:37;2.67;;;1.90;;
60213;SDS011;46080;46.904;19.688;2022-09-21T15:54:17;2.15;;;1.90;;
60213;SDS011;46080;46.904;19.688;2022-09-21T15:56:51;2.50;;;1.80;;
60213;SDS011;46080;46.904;19.688;2022-09-21T15:59:18;2.35;;;1.75;;
60213;SDS011;46080;46.904;19.688;2022-09-21T16:01:51;4.50;;;2.20;;
60213;SDS011;46080;46.904;19.688;2022-09-21T16:04:23;3.67;;;2.63;;
60213;SDS011;46080;46.904;19.688;2022-09-21T16:09:36;4.00;;;2.40;;
60213;SDS011;46080;46.904;19.688;2022-09-21T16:14:51;4.50;;;2.58;;
60213;SDS011;46080;46.904;19.688;2022-09-21T16:17:25;2.28;;;1.98;;
60213;SDS011;46080;46.904;19.688;2022-09-21T16:28:03;3.38;;;2.15;;
60213;SDS011;46080;46.904;19.688;2022-09-21T16:30:50;2.45;;;2.25;;
60213;SDS011;46080;46.904;19.688;2022-09-21T16:38:56;4.55;;;3.08;;
60213;SDS011;46080;46.904;19.688;2022-09-21T16:41:30;4.72;;;2.85;;
60213;SDS011;46080;46.904;19.688;2022-09-21T16:43:56;3.08;;;2.75;;
60213;SDS011;46080;46.904;19.688;2022-09-21T16:46:22;44.20;;;16.90;;
60213;SDS011;46080;46.904;19.688;2022-09-21T16:48:50;12.63;;;8.50;;
60213;SDS011;46080;46.904;19.688;2022-09-21T16:51:19;9.65;;;4.78;;
60213;SDS011;46080;46.904;19.688;2022-09-21T16:53:49;5.80;;;4.00;;
60213;SDS011;46080;46.904;19.688;2022-09-21T16:56:18;5.00;;;3.00;;
60213;SDS011;46080;46.904;19.688;2022-09-21T16:58:43;8.27;;;3.80;;
60213;SDS011;46080;46.904;19.688;2022-09-21T17:01:14;5.35;;;3.17;;
60213;SDS011;46080;46.904;19.688;2022-09-21T17:03:44;8.27;;;4.60;;
60213;SDS011;46080;46.904;19.688;2022-09-21T17:08:37;12.07;;;6.05;;
60213;SDS011;46080;46.904;19.688;2022-09-21T17:11:02;27.65;;;15.05;;
60213;SDS011;46080;46.904;19.688;2022-09-21T17:13:28;14.02;;;8.23;;
60213;SDS011;46080;46.904;19.688;2022-09-21T17:15:56;14.57;;;8.15;;
60213;SDS011;46080;46.904;19.688;2022-09-21T17:18:22;18.42;;;9.27;;
60213;SDS011;46080;46.904;19.688;2022-09-21T17:20:48;15.73;;;9.52;;
60213;SDS011;46080;46.904;19.688;2022-09-21T17:23:14;17.38;;;11.05;;
60213;SDS011;46080;46.904;19.688;2022-09-21T17:25:40;17.83;;;10.98;;
60213;SDS011;46080;46.904;19.688;2022-09-21T17:28:11;21.20;;;11.20;;
60213;SDS011;46080;46.904;19.688;2022-09-21T17:30:39;21.77;;;13.35;;
60213;SDS011;46080;46.904;19.688;2022-09-21T17:33:10;25.42;;;15.57;;
60213;SDS011;46080;46.904;19.688;2022-09-21T17:35:36;28.88;;;18.17;;
60213;SDS011;46080;46.904;19.688;2022-09-21T17:38:03;39.72;;;24.48;;
60213;SDS011;46080;46.904;19.688;2022-09-21T17:40:30;33.60;;;22.63;;
60213;SDS011;46080;46.904;19.688;2022-09-21T17:43:01;32.38;;;22.63;;
60213;SDS011;46080;46.904;19.688;2022-09-21T17:45:52;26.90;;;17.42;;
60213;SDS011;46080;46.904;19.688;2022-09-21T17:48:27;24.38;;;15.15;;
60213;SDS011;46080;46.904;19.688;2022-09-21T17:50:53;22.48;;;15.52;;
60213;SDS011;46080;46.904;19.688;2022-09-21T17:53:19;18.42;;;12.63;;
60213;SDS011;46080;46.904;19.688;2022-09-21T17:59:01;14.75;;;10.85;;
60213;SDS011;46080;46.904;19.688;2022-09-21T18:03:58;14.25;;;10.02;;
60213;SDS011;46080;46.904;19.688;2022-09-21T18:06:24;12.98;;;9.50;;
60213;SDS011;46080;46.904;19.688;2022-09-21T18:08:51;14.20;;;9.43;;
60213;SDS011;46080;46.904;19.688;2022-09-21T18:20:00;15.27;;;10.63;;
60213;SDS011;46080;46.904;19.688;2022-09-21T18:25:42;17.33;;;10.85;;
60213;SDS011;46080;46.904;19.688;2022-09-21T18:28:15;17.25;;;10.80;;
60213;SDS011;46080;46.904;19.688;2022-09-21T18:34:00;16.85;;;11.13;;
60213;SDS011;46080;46.904;19.688;2022-09-21T18:42:14;21.10;;;13.40;;
60213;SDS011;46080;46.904;19.688;2022-09-21T18:45:13;15.90;;;8.70;;
60213;SDS011;46080;46.904;19.688;2022-09-21T18:48:15;11.05;;;8.38;;
60213;SDS011;46080;46.904;19.688;2022-09-21T18:56:13;10.30;;;6.72;;
60213;SDS011;46080;46.904;19.688;2022-09-21T18:58:39;9.68;;;6.90;;
60213;SDS011;46080;46.904;19.688;2022-09-21T19:01:09;10.50;;;6.03;;
60213;SDS011;46080;46.904;19.688;2022-09-21T19:03:37;6.82;;;5.60;;